Time;durP1;ratioP1;P1;durP2;ratioP2;P2;SDS_P1;SDS_P2;PMS_P1;PMS_P2;Temp;Humidity;BMP_temperature;BMP_pressure;BME280_temperature;BME280_humidity;BME280_pressure;Samples;Min_cycle;Max_cycle;Signal;HPM_P1;HPM_P2
2022/01/02 00:01:51;;;;;;;37.72;25.60;;;;;;;6.25;82.21;94122.13;4988112;28;20127;-40
2022/01/02 00:04:22;;;;;;;42.25;27.50;;;;;;;5.99;83.61;94127.94;4990877;28;20058;-42
2022/01/02 00:06:50;;;;;;;39.35;26.58;;;;;;;5.92;84.36;94118.22;5010471;28;20095;-40
2022/01/02 00:09:33;;;;;;;38.88;26.88;;;;;;;5.96;84.88;94128.94;5009597;28;20091;-41
2022/01/02 00:12:06;;;;;;;35.28;23.38;;;;;;;6.13;83.98;94138.59;5009684;28;20125;-41
2022/01/02 00:14:36;;;;;;;37.65;24.70;;;;;;;5.91;84.93;94137.94;5010492;28;20565;-41
2022/01/02 00:17:04;;;;;;;46.40;26.23;;;;;;;5.89;84.83;94124.69;5009844;28;20687;-41
2022/01/02 00:19:32;;;;;;;37.20;25.00;;;;;;;6.10;84.56;94136.13;5010168;28;20029;-41
2022/01/02 00:22:03;;;;;;;34.03;23.42;;;;;;;6.17;84.35;94130.13;5009660;28;20128;-41
2022/01/02 00:24:31;;;;;;;35.97;23.00;;;;;;;6.30;83.60;94135.06;5008982;28;20598;-40
2022/01/02 00:26:58;;;;;;;44.22;22.27;;;;;;;6.42;82.85;94133.75;5010794;28;20402;-41
2022/01/02 00:29:24;;;;;;;33.15;22.25;;;;;;;6.49;82.64;94131.25;5010315;28;20037;-41
2022/01/02 00:31:50;;;;;;;31.48;21.95;;;;;;;6.51;82.49;94126.00;5009140;28;20041;-41
2022/01/02 00:34:15;;;;;;;37.88;21.60;;;;;;;6.35;82.63;94137.78;5008842;28;20390;-41
2022/01/02 00:36:41;;;;;;;35.92;22.15;;;;;;;6.34;82.73;94130.06;5019728;28;20398;-41
2022/01/02 00:39:07;;;;;;;34.53;21.23;;;;;;;6.35;82.65;94137.78;5030078;28;20033;-41
2022/01/02 00:41:51;;;;;;;30.90;21.85;;;;;;;6.04;83.52;94146.38;5029929;28;20033;-41
2022/01/02 00:44:33;;;;;;;33.17;20.52;;;;;;;5.72;85.99;94140.41;5012102;28;20026;-40
2022/01/02 00:47:15;;;;;;;26.98;19.50;;;;;;;5.98;84.97;94146.38;5030234;28;20033;-40
2022/01/02 00:49:47;;;;;;;33.90;21.73;;;;;;;5.70;84.29;94151.13;5029554;28;20623;-41
2022/01/02 00:52:16;;;;;;;29.90;19.75;;;;;;;5.24;86.59;94121.50;5012478;28;20025;-41
2022/01/02 00:54:44;;;;;;;29.17;20.80;;;;;;;5.57;86.34;94148.13;5029953;28;20029;-42
2022/01/02 00:57:14;;;;;;;29.55;21.70;;;;;;;5.57;85.67;94148.13;5029835;28;20032;-42
2022/01/02 01:00:05;;;;;;;29.83;21.15;;;;;;;5.34;86.21;94141.19;5029942;28;20029;-41
2022/01/02 01:02:39;;;;;;;32.67;20.92;;;;;;;5.44;86.34;94138.94;5029547;28;20041;-41
2022/01/02 01:05:06;;;;;;;32.13;20.42;;;;;;;5.45;85.98;94140.44;5029888;28;20034;-41
2022/01/02 01:07:33;;;;;;;30.70;20.88;;;;;;;5.62;85.28;94143.91;5029444;28;20021;-41
2022/01/02 01:09:59;;;;;;;28.83;20.77;;;;;;;5.61;84.63;94150.66;5029677;28;20084;-41
2022/01/02 01:12:25;;;;;;;32.03;19.60;;;;;;;5.72;83.62;94147.88;5029721;28;20021;-41
2022/01/02 01:14:51;;;;;;;29.42;18.67;;;;;;;5.63;83.47;94154.34;5012964;28;20022;-41
2022/01/02 01:17:17;;;;;;;30.88;19.67;;;;;;;5.68;83.20;94152.84;5009996;28;20030;-41
2022/01/02 01:19:44;;;;;;;24.27;17.52;;;;;;;5.77;82.58;94147.88;5009266;28;20026;-41
2022/01/02 01:22:09;;;;;;;34.85;21.70;;;;;;;5.68;82.65;94152.84;5009465;28;20128;-41
2022/01/02 01:24:36;;;;;;;32.08;20.75;;;;;;;5.39;83.06;94143.91;5007899;28;20116;-41
2022/01/02 01:27:07;;;;;;;31.85;21.33;;;;;;;5.12;84.18;94149.38;5008575;28;20026;-44
2022/01/02 01:29:34;;;;;;;32.38;20.45;;;;;;;5.17;84.84;94157.63;5008209;28;20021;-42
2022/01/02 01:32:04;;;;;;;25.17;17.00;;;;;;;5.16;84.26;94142.44;5008067;28;20029;-42
2022/01/02 01:34:29;;;;;;;28.33;16.38;;;;;;;4.94;85.53;94153.34;5008295;28;20537;-42
2022/01/02 01:36:55;;;;;;;25.15;16.02;;;;;;;5.10;85.49;94154.63;5008565;28;20106;-42
2022/01/02 01:39:21;;;;;;;24.48;14.82;;;;;;;4.92;85.75;94157.81;5008899;28;20030;-42
2022/01/02 01:41:47;;;;;;;26.05;14.10;;;;;;;5.00;86.43;94156.09;5008316;28;20563;-43
2022/01/02 01:46:40;;;;;;;21.63;12.38;;;;;;;5.14;85.11;94146.91;5009063;28;20469;-43
2022/01/02 01:49:18;;;;;;;19.95;13.30;;;;;;;4.91;85.29;94148.88;5008070;28;20033;-41
2022/01/02 01:51:45;;;;;;;23.88;13.43;;;;;;;4.71;86.25;94151.81;5008596;28;20033;-42
2022/01/02 01:54:10;;;;;;;28.30;15.40;;;;;;;4.74;86.98;94145.38;5008000;28;20025;-42
2022/01/02 01:56:37;;;;;;;20.95;12.32;;;;;;;4.94;86.50;94153.34;4990876;28;20037;-42
2022/01/02 01:59:03;;;;;;;20.88;13.63;;;;;;;5.18;85.30;94139.94;5009146;28;20034;-45
2022/01/02 02:01:29;;;;;;;23.05;15.95;;;;;;;5.28;84.57;94143.91;5007723;28;20030;-45
2022/01/02 02:03:56;;;;;;;17.08;13.65;;;;;;;5.29;84.54;94141.94;5007096;28;20046;-45
2022/01/02 02:06:21;;;;;;;23.67;15.65;;;;;;;5.34;84.69;94141.94;5007271;28;20030;-45
2022/01/02 02:08:47;;;;;;;22.63;15.77;;;;;;;5.44;84.59;94138.94;5007580;28;20041;-45
2022/01/02 02:11:13;;;;;;;19.40;15.18;;;;;;;5.36;84.01;94142.19;4989639;28;20041;-47
2022/01/02 02:13:39;;;;;;;24.35;15.50;;;;;;;5.42;84.32;94142.19;4987950;28;20046;-44
2022/01/02 02:16:05;;;;;;;22.70;14.82;;;;;;;5.54;84.00;94140.19;4971620;28;20176;-45
2022/01/02 02:18:31;;;;;;;25.10;15.82;;;;;;;5.65;83.36;94134.69;4990811;28;20034;-44
2022/01/02 02:20:56;;;;;;;24.00;16.38;;;;;;;5.68;83.60;94137.19;4990784;28;20464;-45
2022/01/02 02:23:22;;;;;;;24.42;16.17;;;;;;;5.58;83.31;94138.69;4990535;28;20038;-45
2022/01/02 02:25:47;;;;;;;31.58;18.20;;;;;;;5.39;84.44;94134.97;5004805;28;20030;-45
2022/01/02 02:28:15;;;;;;;21.92;15.25;;;;;;;5.33;84.74;94137.69;5009998;28;20433;-44
2022/01/02 02:30:45;;;;;;;23.13;16.07;;;;;;;5.42;84.69;94136.69;5010542;28;20037;-45
2022/01/02 02:33:10;;;;;;;;;;;;;;;5.47;84.75;94144.19;5010454;28;20033;-44
2022/01/02 02:35:38;;;;;;;33.35;23.13;;;;;;;5.56;84.58;94140.44;5009671;28;20286;-44
2022/01/02 02:38:05;;;;;;;29.02;21.73;;;;;;;5.71;83.81;94140.91;5009981;28;20060;-45
2022/01/02 02:40:31;;;;;;;22.08;16.15;;;;;;;5.70;83.50;94125.72;5009502;28;20034;-44
2022/01/02 02:43:05;;;;;;;26.98;17.40;;;;;;;5.88;83.30;94138.91;5010332;28;20409;-44
2022/01/02 02:51:08;;;;;;;32.28;20.30;;;;;;;5.91;82.81;94141.38;5010313;28;20129;-44
2022/01/02 02:53:36;;;;;;;27.33;18.83;;;;;;;5.88;83.02;94136.94;5010080;28;20029;-44
2022/01/02 02:56:12;;;;;;;47.00;21.63;;;;;;;5.76;83.16;94127.19;5010087;28;20103;-44
2022/01/02 02:58:41;;;;;;;29.25;20.65;;;;;;;5.90;82.61;94145.41;5008830;28;20036;-42
2022/01/02 03:01:08;;;;;;;29.83;21.10;;;;;;;5.69;83.16;94149.63;4975410;28;20030;-40
2022/01/02 03:03:33;;;;;;;34.95;20.98;;;;;;;5.44;85.35;94156.13;4980966;28;20104;-41
2022/01/02 03:05:59;;;;;;;36.10;21.10;;;;;;;5.72;84.76;94158.81;5000399;28;20469;-40
2022/01/02 03:08:26;;;;;;;32.38;21.48;;;;;;;5.49;85.51;94151.88;4999614;28;20057;-41
2022/01/02 03:10:52;;;;;;;34.17;20.85;;;;;;;5.71;85.32;94154.63;4998473;28;20084;-43
2022/01/02 03:13:17;;;;;;;32.15;21.95;;;;;;;5.73;85.24;94160.34;5003985;28;20018;-43
2022/01/02 03:15:43;;;;;;;34.97;23.20;;;;;;;5.82;85.41;94151.84;5004429;28;20034;-43
2022/01/02 03:18:08;;;;;;;31.38;21.75;;;;;;;5.85;84.75;94165.31;5003804;28;20040;-43
2022/01/02 03:20:34;;;;;;;41.42;28.08;;;;;;;5.95;84.60;94160.34;5003036;28;20379;-43
2022/01/02 03:22:59;;;;;;;32.00;22.00;;;;;;;5.99;84.39;94158.84;5002091;28;20041;-44
2022/01/02 03:25:25;;;;;;;35.65;23.70;;;;;;;5.98;84.66;94162.81;5006311;28;20049;-44
2022/01/02 03:27:50;;;;;;;35.72;25.13;;;;;;;6.08;84.89;94174.25;5002324;28;20050;-44
2022/01/02 03:30:16;;;;;;;32.90;22.58;;;;;;;6.18;84.16;94170.00;5001986;28;20029;-42
2022/01/02 03:32:41;;;;;;;34.13;22.92;;;;;;;6.26;83.24;94165.47;4999779;28;20011;-43
2022/01/02 03:35:07;;;;;;;27.83;18.83;;;;;;;6.09;83.63;94160.03;5001817;28;20014;-44
2022/01/02 03:37:34;;;;;;;24.23;16.45;;;;;;;6.16;83.82;94155.28;5001420;28;20101;-42
2022/01/02 03:40:01;;;;;;;25.13;16.83;;;;;;;6.20;83.86;94153.78;5000853;28;20029;-43
2022/01/02 03:42:26;;;;;;;27.52;18.55;;;;;;;6.13;83.74;94157.78;4997814;28;20030;-44
2022/01/02 03:44:52;;;;;;;27.23;17.05;;;;;;;5.99;84.06;94158.84;5001284;28;20549;-43
2022/01/02 03:47:18;;;;;;;25.08;17.52;;;;;;;6.13;84.36;94159.06;5001933;28;20034;-42
2022/01/02 03:49:43;;;;;;;26.27;17.52;;;;;;;6.19;83.46;94149.56;4996600;28;20079;-44
2022/01/02 03:52:09;;;;;;;28.58;18.73;;;;;;;6.26;83.01;94159.25;4991163;28;20113;-43
2022/01/02 03:54:35;;;;;;;24.08;16.60;;;;;;;6.33;82.85;94150.50;4991483;28;20015;-43
2022/01/02 03:57:01;;;;;;;27.38;18.48;;;;;;;6.28;82.71;94159.50;4991673;28;20037;-43
2022/01/02 03:59:26;;;;;;;30.98;20.88;;;;;;;6.21;83.01;94155.28;4991548;28;20493;-42
2022/01/02 04:01:52;;;;;;;29.88;19.52;;;;;;;6.06;83.64;94160.31;4993572;28;20026;-42
2022/01/02 04:04:17;;;;;;;39.55;21.83;;;;;;;6.13;83.84;94153.56;5012008;28;20078;-42
2022/01/02 04:06:43;;;;;;;36.92;19.70;;;;;;;6.10;83.63;94158.06;4997915;28;20030;-43
2022/01/02 04:09:09;;;;;;;23.73;17.63;;;;;;;6.20;83.77;94169.47;4992691;28;20527;-41
2022/01/02 04:11:34;;;;;;;27.75;18.38;;;;;;;5.96;83.77;94170.78;4992738;28;20031;-41
2022/01/02 04:14:00;;;;;;;44.00;24.40;;;;;;;5.89;84.74;94174.03;4992761;28;20022;-41
2022/01/02 04:16:25;;;;;;;38.03;22.88;;;;;;;6.05;84.41;94181.50;4992420;28;20469;-42
2022/01/02 04:18:51;;;;;;;33.22;20.23;;;;;;;5.97;84.68;94180.50;4992534;28;20030;-41
2022/01/02 04:21:16;;;;;;;30.73;20.45;;;;;;;5.99;84.72;94174.53;4992209;28;20117;-41
2022/01/02 04:23:42;;;;;;;34.63;20.33;;;;;;;6.06;84.79;94184.97;4992706;28;20026;-40
2022/01/02 04:26:08;;;;;;;30.98;19.90;;;;;;;6.03;84.54;94184.00;5008931;28;20136;-41
2022/01/02 04:28:34;;;;;;;28.02;17.27;;;;;;;6.07;84.34;94189.97;5011954;28;20033;-40
2022/01/02 04:30:59;;;;;;;27.80;15.88;;;;;;;6.20;83.49;94194.16;5012142;28;20564;-40
2022/01/02 04:33:25;;;;;;;23.92;14.70;;;;;;;6.11;83.40;94195.16;5012069;28;20049;-40
2022/01/02 04:35:50;;;;;;;19.38;12.77;;;;;;;6.21;83.58;94198.41;5011814;28;20489;-41
2022/01/02 04:38:16;;;;;;;21.25;12.75;;;;;;;6.17;83.48;94195.19;5011630;28;20025;-41
2022/01/02 04:40:42;;;;;;;22.25;13.07;;;;;;;6.11;83.63;94192.44;5011724;28;20073;-41
2022/01/02 04:43:07;;;;;;;22.13;13.40;;;;;;;6.12;83.47;94202.16;5011594;28;20064;-41
2022/01/02 04:45:33;;;;;;;19.55;12.45;;;;;;;5.82;83.61;94185.50;5011892;28;20064;-40
2022/01/02 04:47:59;;;;;;;22.25;13.05;;;;;;;6.11;83.17;94198.66;5011412;28;20460;-41
2022/01/02 04:50:24;;;;;;;23.48;12.30;;;;;;;6.16;83.14;94197.16;5010636;28;20040;-40
2022/01/02 04:52:50;;;;;;;28.85;12.85;;;;;;;6.13;83.33;94190.69;5011784;28;20415;-41
2022/01/02 04:55:16;;;;;;;48.60;12.82;;;;;;;5.97;83.53;94191.47;5009554;28;20049;-41
2022/01/02 04:57:42;;;;;;;63.05;13.07;;;;;;;5.88;83.57;94164.34;4972706;28;20105;-40
2022/01/02 05:00:08;;;;;;;43.80;12.40;;;;;;;6.21;83.26;94198.41;4972334;28;20506;-40
2022/01/02 05:02:34;;;;;;;43.63;12.90;;;;;;;6.09;83.18;94181.97;4972400;28;20137;-40
2022/01/02 05:04:59;;;;;;;45.17;14.20;;;;;;;6.08;83.51;94201.69;4991217;28;20101;-40
2022/01/02 05:07:25;;;;;;;40.13;14.15;;;;;;;6.10;83.94;94190.94;4991982;28;20076;-40
2022/01/02 05:09:51;;;;;;;36.30;13.55;;;;;;;6.03;83.99;94197.69;4991867;28;20401;-40
2022/01/02 05:12:16;;;;;;;29.10;12.82;;;;;;;5.74;84.93;94191.97;4991530;28;20030;-40
2022/01/02 05:14:42;;;;;;;23.48;12.77;;;;;;;5.53;85.80;94196.19;4991553;28;20015;-40
2022/01/02 05:17:07;;;;;;;22.05;13.43;;;;;;;5.27;86.90;94196.44;4999126;28;20022;-40
2022/01/02 05:19:33;;;;;;;28.63;13.23;;;;;;;5.28;87.51;94193.19;4997809;28;20034;-40
2022/01/02 05:21:58;;;;;;;35.33;14.98;;;;;;;5.56;86.09;94201.44;4991270;28;20058;-41
2022/01/02 05:24:24;;;;;;;27.83;13.43;;;;;;;5.65;85.77;94201.16;4994253;28;20088;-42
2022/01/02 05:26:51;;;;;;;51.95;17.95;;;;;;;5.75;85.06;94196.19;5011248;28;20034;-42
2022/01/02 05:29:17;;;;;;;37.05;15.75;;;;;;;5.71;85.14;94199.19;5010944;28;20109;-42
2022/01/02 05:31:42;;;;;;;35.25;16.05;;;;;;;5.61;85.36;94165.06;5010786;28;20485;-41
2022/01/02 05:34:08;;;;;;;95.13;29.30;;;;;;;5.84;85.39;94210.44;5010634;28;20022;-41
2022/01/02 05:36:34;;;;;;;53.97;18.55;;;;;;;5.77;84.91;94188.22;5010779;28;20517;-42
2022/01/02 05:39:00;;;;;;;42.92;17.52;;;;;;;5.93;84.84;94206.69;5010872;28;20026;-43
2022/01/02 05:41:27;;;;;;;54.80;20.63;;;;;;;5.99;84.53;94201.94;5011044;28;20014;-42
2022/01/02 05:43:53;;;;;;;43.53;16.90;;;;;;;6.01;84.63;94207.66;5010856;28;20026;-43
2022/01/02 05:46:18;;;;;;;45.15;14.57;;;;;;;5.99;84.74;94208.16;5010501;28;20406;-43
2022/01/02 05:48:44;;;;;;;42.55;16.80;;;;;;;5.97;84.87;94212.66;5010680;28;20057;-44
2022/01/02 05:51:10;;;;;;;60.35;15.32;;;;;;;6.04;84.52;94212.88;5010488;28;20108;-44
2022/01/02 05:53:35;;;;;;;27.95;14.95;;;;;;;6.04;84.57;94217.63;5000745;28;20393;-44
2022/01/02 05:56:01;;;;;;;50.22;16.48;;;;;;;6.10;84.39;94205.41;5007907;28;20034;-43
2022/01/02 05:58:27;;;;;;;33.03;16.77;;;;;;;6.05;84.39;94213.63;4999291;28;20056;-44
2022/01/02 06:00:52;;;;;;;55.63;20.05;;;;;;;5.97;83.96;94207.19;5010452;28;20084;-42
2022/01/02 06:03:18;;;;;;;62.13;20.17;;;;;;;5.97;84.20;94215.41;5003680;28;20077;-42
2022/01/02 06:05:44;;;;;;;65.82;30.13;;;;;;;5.94;84.66;94221.88;4989905;28;20038;-42
2022/01/02 06:08:09;;;;;;;65.78;26.60;;;;;;;6.03;84.14;94216.88;4990182;28;20034;-42
2022/01/02 06:10:35;;;;;;;57.38;22.77;;;;;;;5.89;84.53;94228.13;4990734;28;20097;-42
2022/01/02 06:13:01;;;;;;;68.25;28.92;;;;;;;5.86;85.05;94223.63;4990914;28;20037;-42
2022/01/02 06:15:26;;;;;;;74.88;29.85;;;;;;;5.67;85.11;94223.38;4990609;28;20018;-42
2022/01/02 06:17:52;;;;;;;43.38;19.90;;;;;;;5.64;86.14;94229.81;5004344;28;20026;-42
2022/01/02 06:20:17;;;;;;;56.08;28.70;;;;;;;5.64;85.94;94231.81;5010419;28;20399;-45
2022/01/02 06:22:42;;;;;;;77.15;28.58;;;;;;;5.67;86.04;94231.59;5010285;28;20494;-43
2022/01/02 06:25:08;;;;;;;76.10;31.30;;;;;;;5.57;85.82;94235.78;5010033;28;20033;-43
2022/01/02 06:27:34;;;;;;;89.88;39.50;;;;;;;5.63;86.33;94239.28;5010505;28;20033;-43
2022/01/02 06:30:00;;;;;;;183.45;71.47;;;;;;;5.39;86.27;94239.03;5010172;28;20552;-43
2022/01/02 06:32:25;;;;;;;171.13;71.88;;;;;;;5.43;86.96;94245.00;5010381;28;20417;-43
2022/01/02 06:34:51;;;;;;;176.43;71.53;;;;;;;5.55;86.92;94251.97;4992579;28;20406;-43
2022/01/02 06:37:16;;;;;;;132.02;54.80;;;;;;;5.41;87.02;94250.22;5010397;28;20038;-44
2022/01/02 06:39:42;;;;;;;113.85;50.50;;;;;;;5.61;86.87;94252.72;5010127;28;20026;-43
2022/01/02 06:42:08;;;;;;;123.75;47.13;;;;;;;5.77;86.23;94253.97;5010149;28;20049;-43
2022/01/02 06:44:34;;;;;;;106.45;37.92;;;;;;;5.77;85.42;94246.50;4998360;28;20027;-42
2022/01/02 06:46:59;;;;;;;52.38;21.63;;;;;;;5.79;84.88;94257.72;4993065;28;20101;-42
2022/01/02 06:49:25;;;;;;;107.82;34.50;;;;;;;5.91;84.85;94266.72;4994159;28;20553;-42
2022/01/02 06:51:50;;;;;;;54.90;24.30;;;;;;;6.02;84.34;94264.72;5002560;28;20037;-42
2022/01/02 06:54:16;;;;;;;77.65;26.55;;;;;;;5.98;84.34;94264.22;5013640;28;20084;-42
2022/01/02 06:56:41;;;;;;;74.90;26.40;;;;;;;6.04;83.84;94262.22;5009148;28;20029;-43
2022/01/02 06:59:07;;;;;;;57.67;22.80;;;;;;;6.10;83.74;94271.22;4994360;28;20449;-43
2022/01/02 07:01:33;;;;;;;69.97;21.88;;;;;;;6.08;83.85;94278.44;5001631;28;20405;-43
2022/01/02 07:03:58;;;;;;;78.70;22.40;;;;;;;6.17;83.66;94283.66;5003966;28;20065;-45
2022/01/02 07:06:24;;;;;;;66.15;23.90;;;;;;;6.11;83.34;94285.66;5004019;28;20033;-42
2022/01/02 07:08:49;;;;;;;68.43;23.02;;;;;;;6.13;83.74;94281.16;5004083;28;20026;-42
2022/01/02 07:11:15;;;;;;;68.78;25.80;;;;;;;6.11;83.60;94286.41;5003703;28;20105;-43
2022/01/02 07:13:40;;;;;;;59.72;24.42;;;;;;;5.96;84.08;94266.72;5002659;28;20062;-44
2022/01/02 07:16:06;;;;;;;50.63;23.08;;;;;;;6.20;83.86;94287.38;5002474;28;20033;-43
2022/01/02 07:18:32;;;;;;;44.67;23.58;;;;;;;6.22;83.97;94288.38;5003985;28;20014;-43
2022/01/02 07:20:57;;;;;;;81.03;35.03;;;;;;;6.22;83.76;94287.63;5004099;28;20026;-43
2022/01/02 07:23:23;;;;;;;51.42;27.08;;;;;;;6.30;84.03;94294.13;5003708;28;20048;-44
2022/01/02 07:25:48;;;;;;;55.60;28.65;;;;;;;6.38;83.71;94290.38;5008772;28;20031;-43
2022/01/02 07:28:14;;;;;;;70.45;36.33;;;;;;;6.55;82.94;94298.56;5003689;28;20504;-42
2022/01/02 07:30:40;;;;;;;84.63;41.88;;;;;;;6.58;82.33;94275.63;5005664;28;20030;-43
2022/01/02 07:33:05;;;;;;;96.32;52.13;;;;;;;6.67;81.98;94287.03;5001756;28;20525;-43
2022/01/02 07:35:31;;;;;;;52.90;29.40;;;;;;;6.61;81.83;94269.09;5001278;28;20022;-44
2022/01/02 07:37:57;;;;;;;60.60;36.15;;;;;;;6.84;81.90;94295.25;5002406;28;20054;-43
2022/01/02 07:40:24;;;;;;;87.65;47.50;;;;;;;6.93;81.77;94291.47;5002338;28;20030;-41
2022/01/02 07:42:50;;;;;;;70.22;39.17;;;;;;;6.96;81.49;94288.47;5003050;28;20046;-41
2022/01/02 07:45:15;;;;;;;73.82;42.75;;;;;;;7.02;81.16;94293.94;5004338;28;20054;-41
2022/01/02 07:47:41;;;;;;;69.40;40.28;;;;;;;7.09;80.75;94291.41;5004930;28;20056;-41
2022/01/02 07:50:07;;;;;;;54.92;28.75;;;;;;;7.10;80.59;94292.16;4996856;28;20031;-41
2022/01/02 07:52:33;;;;;;;43.90;25.73;;;;;;;7.06;80.56;94294.44;4991727;28;20058;-41
2022/01/02 07:54:58;;;;;;;43.47;25.02;;;;;;;7.05;80.69;94290.94;4996316;28;20046;-41
2022/01/02 07:57:24;;;;;;;33.50;20.55;;;;;;;6.97;81.12;94289.97;5009375;28;20022;-42
2022/01/02 07:59:49;;;;;;;32.10;18.27;;;;;;;7.09;81.43;94296.91;5012757;28;20018;-41
2022/01/02 08:02:15;;;;;;;35.00;20.23;;;;;;;7.22;81.28;94302.59;5001700;28;20056;-41
2022/01/02 08:04:40;;;;;;;52.30;26.67;;;;;;;7.28;81.34;94302.53;5004632;28;20039;-41
2022/01/02 08:07:06;;;;;;;37.78;22.08;;;;;;;7.34;81.65;94290.28;5001522;28;20104;-41
2022/01/02 08:09:32;;;;;;;28.27;15.13;;;;;;;7.37;81.35;94303.00;5002910;28;20136;-42
2022/01/02 08:11:57;;;;;;;30.73;17.48;;;;;;;7.35;81.16;94291.78;5002120;28;20524;-41
2022/01/02 08:14:23;;;;;;;28.13;16.42;;;;;;;7.42;81.13;94309.72;5004201;28;20018;-41
2022/01/02 08:16:49;;;;;;;37.83;20.65;;;;;;;7.52;80.87;94297.19;5004730;28;20413;-41
2022/01/02 08:19:14;;;;;;;31.02;19.38;;;;;;;7.55;80.89;94301.66;4999554;28;20034;-41
2022/01/02 08:21:40;;;;;;;45.15;22.58;;;;;;;7.53;80.86;94298.69;5003726;28;20149;-41
2022/01/02 08:24:06;;;;;;;34.55;18.80;;;;;;;7.61;80.30;94297.63;5000738;28;20030;-42
2022/01/02 08:26:31;;;;;;;30.08;17.35;;;;;;;7.70;80.33;94293.06;5006059;28;20109;-41
2022/01/02 08:29:00;;;;;;;40.17;22.98;;;;;;;7.67;79.87;94297.59;5011984;28;20022;-42
2022/01/02 08:31:29;;;;;;;32.72;19.42;;;;;;;7.44;81.91;94294.25;5012254;28;20030;-41
2022/01/02 08:33:55;;;;;;;;;;;;;;;7.35;82.99;94297.28;5011874;28;20782;-42
2022/01/02 08:36:20;;;;;;;31.10;18.70;;;;;;;7.37;83.52;94294.00;5011370;28;19925;-44
2022/01/02 08:38:47;;;;;;;28.50;16.05;;;;;;;7.09;84.35;94279.66;5002462;28;20461;-44
2022/01/02 08:41:14;;;;;;;24.45;16.45;;;;;;;7.39;84.41;94292.25;4995300;28;20042;-44
2022/01/02 08:43:40;;;;;;;30.02;18.33;;;;;;;7.62;84.02;94301.84;4997806;28;20498;-45
2022/01/02 08:46:05;;;;;;;28.58;18.30;;;;;;;7.83;83.24;94298.75;4994051;28;20034;-43
2022/01/02 08:48:31;;;;;;;23.55;14.63;;;;;;;8.02;82.98;94296.84;4994429;28;20022;-44
2022/01/02 08:50:57;;;;;;;25.13;16.17;;;;;;;8.17;82.02;94288.97;5000106;28;20501;-43
2022/01/02 08:53:22;;;;;;;24.67;16.65;;;;;;;8.34;81.30;94301.38;4997642;28;20037;-41
2022/01/02 08:55:48;;;;;;;32.05;18.23;;;;;;;8.49;80.77;94308.50;4995240;28;20037;-41
2022/01/02 08:58:14;;;;;;;25.10;16.15;;;;;;;8.51;80.79;94292.94;4992666;28;20644;-41
2022/01/02 09:00:39;;;;;;;21.63;14.82;;;;;;;8.62;80.26;94300.38;4993179;28;20034;-40
2022/01/02 09:03:06;;;;;;;27.23;18.08;;;;;;;8.61;79.87;94294.13;4991393;28;20054;-40
2022/01/02 09:05:32;;;;;;;26.23;18.58;;;;;;;8.49;80.09;94305.75;4996091;28;20029;-41
2022/01/02 09:07:58;;;;;;;22.45;15.70;;;;;;;8.57;79.95;94304.66;4991148;28;20034;-41
2022/01/02 09:10:23;;;;;;;20.48;14.07;;;;;;;8.66;79.56;94306.34;5000125;28;20030;-41
2022/01/02 09:12:49;;;;;;;25.20;15.30;;;;;;;8.72;79.51;94307.78;5000663;28;20046;-42
2022/01/02 09:15:16;;;;;;;31.30;19.02;;;;;;;8.79;79.54;94309.22;4997961;28;20023;-42
2022/01/02 09:17:42;;;;;;;27.13;18.90;;;;;;;8.90;79.44;94303.59;5000604;28;20092;-42
2022/01/02 09:20:09;;;;;;;21.17;15.13;;;;;;;9.05;78.95;94296.38;4998341;28;20695;-42
2022/01/02 09:22:36;;;;;;;20.55;13.80;;;;;;;9.18;78.46;94296.47;4999319;28;20022;-42
2022/01/02 09:25:03;;;;;;;19.50;13.73;;;;;;;9.52;77.30;94298.81;4996654;28;20023;-41
2022/01/02 09:27:29;;;;;;;19.50;14.68;;;;;;;9.83;77.11;94284.38;4998830;28;20022;-42
2022/01/02 09:29:55;;;;;;;22.17;13.60;;;;;;;10.20;74.75;94280.81;4999550;28;20029;-42
2022/01/02 09:32:20;;;;;;;16.15;11.55;;;;;;;10.54;73.40;94265.94;4995190;28;20028;-42
2022/01/02 09:34:46;;;;;;;14.63;11.90;;;;;;;10.81;72.40;94269.44;4998354;28;20156;-42
2022/01/02 09:37:12;;;;;;;13.90;11.35;;;;;;;10.69;71.35;94262.66;4998674;28;20126;-42
2022/01/02 09:39:37;;;;;;;14.15;10.45;;;;;;;10.39;72.60;94262.19;4997342;28;20022;-42
2022/01/02 09:42:04;;;;;;;20.77;16.13;;;;;;;10.37;71.94;94254.41;4999248;28;20516;-42
2022/01/02 09:44:31;;;;;;;14.23;10.80;;;;;;;9.98;71.70;94254.28;4997349;28;20033;-42
2022/01/02 09:46:57;;;;;;;13.77;11.65;;;;;;;9.96;72.27;94256.09;4996867;28;20025;-41
2022/01/02 09:49:23;;;;;;;16.42;12.77;;;;;;;9.87;72.84;94265.50;4995532;28;20018;-41
2022/01/02 09:51:49;;;;;;;15.07;12.20;;;;;;;9.94;73.06;94257.34;4994928;28;20029;-41
2022/01/02 09:54:14;;;;;;;13.93;11.32;;;;;;;9.90;73.81;94250.63;5001317;28;20025;-42
2022/01/02 09:56:40;;;;;;;19.77;14.38;;;;;;;10.21;72.98;94255.44;5001765;28;20026;-42
2022/01/02 09:59:06;;;;;;;17.55;12.45;;;;;;;10.37;72.53;94246.13;4996007;28;20045;-41
2022/01/02 10:01:32;;;;;;;32.47;21.58;;;;;;;10.47;72.35;94252.00;4995767;28;20026;-39
2022/01/02 10:03:58;;;;;;;22.02;16.67;;;;;;;10.42;71.89;94250.81;4996920;28;20108;-40
2022/01/02 10:06:56;;;;;;;14.20;11.27;;;;;;;10.26;72.17;94251.84;4995031;28;20041;-39
2022/01/02 10:09:36;;;;;;;20.50;11.10;;;;;;;10.28;72.45;94241.03;4963617;28;20041;-41
2022/01/02 10:12:25;;;;;;;20.27;13.63;;;;;;;10.36;72.12;94241.13;4988508;28;20035;-39
2022/01/02 10:15:06;;;;;;;24.95;16.13;;;;;;;10.58;72.52;94230.47;4988492;28;20101;-39
2022/01/02 10:17:52;;;;;;;16.35;13.15;;;;;;;10.64;71.10;94230.34;5005799;28;20033;-40
2022/01/02 10:20:18;;;;;;;16.80;11.73;;;;;;;10.56;71.22;94221.97;5011604;28;20033;-38
2022/01/02 10:23:05;;;;;;;15.13;11.60;;;;;;;10.52;70.99;94216.00;5014343;28;20021;-41
2022/01/02 10:25:37;;;;;;;12.45;10.45;;;;;;;10.22;71.28;94221.03;5013930;28;20028;-40
2022/01/02 10:28:36;;;;;;;14.73;11.00;;;;;;;10.28;71.39;94218.94;5014362;28;20152;-40
2022/01/02 10:31:02;;;;;;;14.55;11.65;;;;;;;10.45;71.85;94219.41;5014238;28;20113;-41
2022/01/02 10:33:30;;;;;;;25.20;15.77;;;;;;;10.45;71.48;94216.63;5014138;28;20062;-40
2022/01/02 10:35:57;;;;;;;13.88;10.63;;;;;;;9.98;72.29;94212.16;4996470;28;20026;-41
2022/01/02 10:38:22;;;;;;;13.48;11.45;;;;;;;10.00;72.49;94209.63;5014286;28;20025;-41
2022/01/02 10:40:48;;;;;;;16.05;10.85;;;;;;;9.76;73.23;94199.47;5014302;28;20541;-41
2022/01/02 10:43:30;;;;;;;13.52;11.40;;;;;;;9.77;74.22;94203.69;5013798;28;20524;-41
2022/01/02 10:45:58;;;;;;;14.35;12.13;;;;;;;9.97;73.71;94199.63;5013613;28;20034;-41
2022/01/02 10:48:38;;;;;;;14.38;11.18;;;;;;;10.19;73.63;94194.53;5013785;28;20030;-42
2022/01/02 10:51:09;;;;;;;11.43;10.20;;;;;;;10.52;73.15;94182.13;5014007;28;20033;-41
2022/01/02 10:53:37;;;;;;;13.35;9.25;;;;;;;11.79;67.90;94171.13;5014082;28;20100;-40
2022/01/02 10:56:04;;;;;;;15.27;10.00;;;;;;;11.86;67.07;94173.25;5006426;28;20084;-41
2022/01/02 10:58:33;;;;;;;12.60;9.70;;;;;;;11.62;66.99;94170.75;5008176;28;20133;-41
2022/01/02 11:01:06;;;;;;;12.60;9.80;;;;;;;11.17;67.29;94137.84;5002947;28;20488;-41
2022/01/02 11:03:33;;;;;;;11.55;9.68;;;;;;;11.38;66.96;94171.06;5003521;28;20070;-42
2022/01/02 11:06:06;;;;;;;11.50;10.30;;;;;;;11.67;66.87;94167.16;4999165;28;20036;-41
2022/01/02 11:08:34;;;;;;;14.93;9.73;;;;;;;11.83;66.44;94170.78;4996344;28;20030;-41
2022/01/02 11:11:00;;;;;;;11.13;9.20;;;;;;;11.96;66.00;94168.69;5001256;28;20038;-41
2022/01/02 11:13:25;;;;;;;12.23;10.10;;;;;;;11.94;66.00;94165.72;5002328;28;20021;-41
2022/01/02 11:15:53;;;;;;;13.43;12.02;;;;;;;12.40;64.63;94169.59;5002069;28;20532;-40
2022/01/02 11:18:19;;;;;;;13.00;11.68;;;;;;;12.66;65.06;94172.19;5006391;28;20033;-42
2022/01/02 11:20:45;;;;;;;10.35;9.05;;;;;;;13.36;62.44;94161.63;5001922;28;20017;-41
2022/01/02 11:23:44;;;;;;;9.02;8.10;;;;;;;14.50;58.34;94159.00;5002236;28;20524;-41
2022/01/02 11:26:28;;;;;;;9.55;7.65;;;;;;;14.91;54.49;94150.97;4998737;28;20026;-41
2022/01/02 11:28:56;;;;;;;9.35;7.82;;;;;;;15.25;54.54;94141.38;5001844;28;20030;-41
2022/01/02 11:31:34;;;;;;;9.27;7.63;;;;;;;15.62;53.28;94132.88;4984844;28;20379;-41
2022/01/02 11:34:01;;;;;;;11.00;9.18;;;;;;;16.15;52.95;94140.13;4998885;28;20109;-42